Terminal Aerodrome Forecast
Issued by NWS Portland, ME

Home | Current Version | Previous Version | Text Only | Print | Product List | Glossary On
Versions: 1 2 3 4 5 6 7 8 9 10 11 12 13 14 15 16 17 18 19 20 21 22 23 24 25 26 27 28 29 30 31 32
985
FTUS41 KGYX 190526
TAFCON
TAF
KCON 190526Z 1906/2006 16004KT 3SM -RA BR OVC004
     FM191200 18006KT P6SM OVC008
     FM191600 23011G23KT P6SM -RA BKN015
     FM191800 27017G35KT P6SM SCT050
     FM192300 28015G30KT P6SM FEW015=

USA.gov is the U.S. government's official web portal to all federal, state and local government web resources and services.